Time;durP1;ratioP1;P1;durP2;ratioP2;P2;SDS_P1;SDS_P2;PMS_P1;PMS_P2;Temp;Humidity;BMP_temperature;BMP_pressure;BME280_temperature;BME280_humidity;BME280_pressure;Samples;Min_cycle;Max_cycle;Signal;HPM_P1;HPM_P2
2024/04/16 00:02:22;;;;;;;2.88;0.70;;;5.50;99.90;;;;;;5452008;26;20030;-84
2024/04/16 00:04:49;;;;;;;2.22;0.60;;;5.50;99.90;;;;;;5439560;26;20360;-85
2024/04/16 00:07:16;;;;;;;2.78;0.60;;;5.40;99.90;;;;;;5459026;26;20020;-84
2024/04/16 00:09:43;;;;;;;1.20;0.50;;;5.30;99.90;;;;;;5443644;26;20022;-84
2024/04/16 00:12:09;;;;;;;3.80;0.60;;;5.30;99.90;;;;;;5455156;26;20021;-84
2024/04/16 00:14:36;;;;;;;2.47;0.60;;;5.20;99.90;;;;;;5437523;26;20019;-84
2024/04/16 00:17:03;;;;;;;1.98;0.60;;;5.20;99.90;;;;;;5433441;26;20087;-84
2024/04/16 00:19:30;;;;;;;1.88;0.55;;;5.20;99.90;;;;;;5490375;26;20021;-84
2024/04/16 00:22:17;;;;;;;2.85;0.95;;;5.20;99.90;;;;;;5439330;26;20039;-84
2024/04/16 00:24:43;;;;;;;1.60;0.63;;;5.40;99.90;;;;;;5459267;26;20894;-84
2024/04/16 00:27:11;;;;;;;6.20;1.20;;;5.10;99.90;;;;;;5460153;26;20006;-84
2024/04/16 00:29:38;;;;;;;4.88;0.65;;;5.00;99.90;;;;;;5467603;26;20007;-84
2024/04/16 00:32:05;;;;;;;1.75;0.70;;;6.10;99.90;;;;;;5489000;26;20006;-84
2024/04/16 00:34:32;;;;;;;5.32;0.70;;;5.00;99.90;;;;;;5443747;26;20359;-84
2024/04/16 00:36:59;;;;;;;7.28;0.82;;;5.00;99.90;;;;;;5484176;26;20007;-85
2024/04/16 00:39:25;;;;;;;2.28;0.50;;;4.90;99.90;;;;;;5440711;26;20846;-85
2024/04/16 00:41:52;;;;;;;4.28;0.65;;;5.00;99.90;;;;;;5456282;26;20171;-85
2024/04/16 00:44:20;;;;;;;3.60;0.60;;;5.00;99.90;;;;;;5472829;26;20082;-84
2024/04/16 00:46:47;;;;;;;2.00;0.65;;;4.90;99.90;;;;;;5476420;26;20504;-84
2024/04/16 00:49:14;;;;;;;3.13;0.60;;;5.30;99.90;;;;;;5490103;26;20006;-84
2024/04/16 00:51:41;;;;;;;3.13;0.77;;;4.90;99.90;;;;;;5480470;26;20081;-84
2024/04/16 00:54:09;;;;;;;4.38;0.63;;;5.00;99.90;;;;;;5446303;26;20181;-84
2024/04/16 00:56:36;;;;;;;1.38;0.45;;;5.10;99.90;;;;;;5488448;26;20007;-84
2024/04/16 00:59:10;;;;;;;3.50;0.70;;;5.00;99.90;;;;;;5460208;26;20007;-84
2024/04/16 01:01:37;;;;;;;1.77;0.47;;;5.80;99.90;;;;;;5488745;26;20021;-84
2024/04/16 01:04:04;;;;;;;2.08;0.70;;;5.90;99.90;;;;;;5471992;26;20006;-84
2024/04/16 01:06:32;;;;;;;0.82;0.40;;;5.10;99.90;;;;;;5502559;26;20007;-84
2024/04/16 01:09:05;;;;;;;0.63;0.40;;;5.70;99.90;;;;;;5433200;26;20016;-84
2024/04/16 01:11:31;;;;;;;1.65;0.55;;;5.00;99.90;;;;;;5439627;26;20055;-84
2024/04/16 01:14:01;;;;;;;3.95;0.68;;;5.50;99.90;;;;;;5422416;26;20008;-84
2024/04/16 01:16:28;;;;;;;1.70;0.55;;;5.10;99.90;;;;;;5423566;26;20348;-85
2024/04/16 01:18:55;;;;;;;0.57;0.50;;;5.10;99.90;;;;;;5457646;26;20007;-84
2024/04/16 01:21:22;;;;;;;1.05;0.47;;;5.10;99.90;;;;;;5470173;26;20007;-84
2024/04/16 01:23:49;;;;;;;2.35;0.40;;;5.10;99.90;;;;;;5476274;26;20011;-85
2024/04/16 01:26:15;;;;;;;1.27;0.52;;;5.70;99.90;;;;;;5467867;26;20007;-84
2024/04/16 01:28:43;;;;;;;1.23;0.43;;;5.90;99.90;;;;;;5457147;26;20044;-84
2024/04/16 01:31:14;;;;;;;0.75;0.40;;;5.20;99.90;;;;;;5457567;26;20007;-84
2024/04/16 01:33:41;;;;;;;1.17;0.50;;;5.20;99.90;;;;;;5465389;26;20008;-85
2024/04/16 01:36:08;;;;;;;0.52;0.40;;;5.30;99.90;;;;;;5489612;26;20381;-85
2024/04/16 01:38:35;;;;;;;1.45;0.55;;;5.40;99.90;;;;;;5454300;26;20007;-84
2024/04/16 01:41:02;;;;;;;1.33;0.52;;;5.30;99.90;;;;;;5432865;26;20008;-85
2024/04/16 01:43:29;;;;;;;3.28;0.60;;;5.30;99.90;;;;;;5465973;26;20351;-85
2024/04/16 01:45:56;;;;;;;1.40;0.50;;;5.30;99.90;;;;;;5478828;26;20019;-85
2024/04/16 01:48:22;;;;;;;1.70;0.50;;;6.10;99.90;;;;;;5461056;26;20007;-85
2024/04/16 01:50:50;;;;;;;2.53;0.50;;;6.00;99.90;;;;;;5434968;26;20024;-84
2024/04/16 01:53:17;;;;;;;1.20;0.50;;;6.20;99.90;;;;;;5471811;26;20007;-85
2024/04/16 01:55:44;;;;;;;3.72;0.52;;;5.90;99.90;;;;;;5488082;26;20007;-85
2024/04/16 01:58:11;;;;;;;3.13;0.50;;;5.20;99.90;;;;;;5441458;26;20021;-84
2024/04/16 02:00:38;;;;;;;4.18;0.55;;;5.30;99.90;;;;;;5494705;26;20025;-85
2024/04/16 02:03:04;;;;;;;3.65;0.60;;;6.20;99.90;;;;;;5489450;26;20083;-84
2024/04/16 02:05:31;;;;;;;2.20;0.50;;;5.20;99.90;;;;;;5492333;26;20358;-85
2024/04/16 02:08:18;;;;;;;0.52;0.40;;;5.20;99.90;;;;;;5441324;26;20003;-84
2024/04/16 02:10:55;;;;;;;2.00;0.50;;;5.50;99.90;;;;;;5482660;26;20019;-84
2024/04/16 02:13:21;;;;;;;2.28;0.70;;;5.10;99.90;;;;;;5457916;26;20050;-84
2024/04/16 02:15:48;;;;;;;1.27;0.80;;;5.50;99.90;;;;;;5471402;26;20483;-84
2024/04/16 02:18:15;;;;;;;1.98;0.80;;;5.10;99.90;;;;;;5441569;26;20043;-84
2024/04/16 02:20:42;;;;;;;4.65;0.88;;;5.10;99.90;;;;;;5464707;26;20015;-84
2024/04/16 02:23:09;;;;;;;1.73;0.50;;;5.10;99.90;;;;;;5470730;26;20855;-84
2024/04/16 02:25:36;;;;;;;2.58;0.70;;;5.00;99.90;;;;;;5430009;26;20006;-84
2024/04/16 02:28:03;;;;;;;1.95;0.50;;;5.50;99.90;;;;;;5460503;26;20460;-84
2024/04/16 02:30:31;;;;;;;3.97;0.70;;;4.90;99.90;;;;;;5460657;26;20026;-84
2024/04/16 02:32:58;;;;;;;2.78;0.70;;;5.50;99.90;;;;;;5460938;26;20026;-85
2024/04/16 02:35:25;;;;;;;1.08;0.70;;;5.50;99.90;;;;;;5445109;26;20039;-84
2024/04/16 02:37:52;;;;;;;0.95;0.60;;;4.90;99.90;;;;;;5448675;26;20006;-84
2024/04/16 02:40:19;;;;;;;4.38;0.60;;;5.90;99.90;;;;;;5450039;26;20774;-84
2024/04/16 02:42:45;;;;;;;2.70;0.57;;;4.80;99.90;;;;;;5460022;26;20949;-85
2024/04/16 02:45:32;;;;;;;1.88;0.50;;;5.30;99.90;;;;;;5445293;26;20043;-85
2024/04/16 02:47:59;;;;;;;1.40;0.40;;;4.80;99.90;;;;;;5433884;26;20444;-85
2024/04/16 02:50:26;;;;;;;1.67;0.70;;;4.70;99.90;;;;;;5445067;26;20048;-84
2024/04/16 02:52:52;;;;;;;1.23;0.50;;;4.70;99.90;;;;;;5450448;26;20019;-84
2024/04/16 02:55:21;;;;;;;1.00;0.60;;;4.70;99.90;;;;;;5454339;26;20098;-85
2024/04/16 02:57:48;;;;;;;0.77;0.40;;;4.70;99.90;;;;;;5459990;26;20527;-84
2024/04/16 03:00:15;;;;;;;1.08;0.52;;;4.70;99.90;;;;;;5466026;26;20015;-85
2024/04/16 03:02:42;;;;;;;3.22;0.65;;;4.70;99.90;;;;;;5479848;26;20418;-84
2024/04/16 03:05:08;;;;;;;3.42;0.60;;;4.80;99.90;;;;;;5472599;26;20456;-84
2024/04/16 03:07:36;;;;;;;0.60;0.50;;;5.50;99.90;;;;;;5460224;26;20043;-84
2024/04/16 03:10:03;;;;;;;0.98;0.45;;;5.10;99.90;;;;;;5489716;26;20073;-84
2024/04/16 03:12:30;;;;;;;1.75;0.60;;;4.70;99.90;;;;;;5472063;26;20007;-84
2024/04/16 03:14:57;;;;;;;3.22;0.60;;;4.70;99.90;;;;;;5441907;26;20074;-84
2024/04/16 03:17:23;;;;;;;1.35;0.50;;;5.80;99.90;;;;;;5477419;26;20922;-84
2024/04/16 03:19:50;;;;;;;1.92;0.60;;;5.80;99.90;;;;;;5455131;26;20430;-84
2024/04/16 03:22:17;;;;;;;3.47;0.60;;;4.80;99.90;;;;;;5438053;26;20018;-84
2024/04/16 03:24:44;;;;;;;3.67;0.60;;;4.70;99.90;;;;;;5471851;26;20019;-84
2024/04/16 03:27:11;;;;;;;2.60;0.70;;;5.50;99.90;;;;;;5480521;26;20015;-84
2024/04/16 03:29:58;;;;;;;2.75;1.10;;;5.70;99.90;;;;;;5440061;26;20014;-84
2024/04/16 03:32:25;;;;;;;2.95;0.80;;;4.90;99.90;;;;;;5458577;26;20022;-84
2024/04/16 03:34:54;;;;;;;2.72;0.68;;;4.90;99.90;;;;;;5467542;26;20471;-84
2024/04/16 03:37:21;;;;;;;3.58;0.70;;;5.70;99.90;;;;;;5469630;26;20018;-85
2024/04/16 03:39:48;;;;;;;1.85;0.70;;;5.40;99.90;;;;;;5445199;26;20006;-84
2024/04/16 03:42:15;;;;;;;4.55;0.70;;;4.90;99.90;;;;;;5459034;26;20046;-84
2024/04/16 03:44:41;;;;;;;2.65;0.60;;;5.10;99.90;;;;;;5443760;26;20006;-84
2024/04/16 03:47:08;;;;;;;2.50;0.80;;;4.90;99.90;;;;;;5433454;26;20505;-84
2024/04/16 03:49:35;;;;;;;5.95;1.05;;;4.90;99.90;;;;;;5445808;26;20030;-84
2024/04/16 03:52:02;;;;;;;1.05;0.60;;;4.90;99.90;;;;;;5426890;26;20016;-84
2024/04/16 03:54:29;;;;;;;2.22;0.60;;;4.90;99.90;;;;;;5456058;26;20022;-84
2024/04/16 03:56:56;;;;;;;5.10;0.90;;;4.90;99.90;;;;;;5431981;26;20023;-85
2024/04/16 04:02:19;;;;;;;1.67;0.60;;;4.90;99.90;;;;;;5426065;26;20018;-85
2024/04/16 04:05:16;;;;;;;1.02;0.50;;;4.90;99.90;;;;;;5605083;25;21260;-86
2024/04/16 04:07:43;;;;;;;2.58;0.80;;;4.90;99.90;;;;;;5551394;25;20001;-83
2024/04/16 04:10:10;;;;;;;2.67;0.90;;;4.90;99.90;;;;;;5522518;26;20006;-83
2024/04/16 04:12:37;;;;;;;2.00;0.82;;;5.30;99.90;;;;;;5513549;26;20006;-84
2024/04/16 04:15:04;;;;;;;2.17;0.70;;;5.70;99.90;;;;;;5550179;25;20106;-84
2024/04/16 04:17:31;;;;;;;4.55;0.95;;;5.00;99.90;;;;;;5523272;26;20006;-85
2024/04/16 04:20:01;;;;;;;3.42;0.90;;;5.80;99.90;;;;;;5509598;26;20014;-84
2024/04/16 04:22:27;;;;;;;3.50;1.00;;;5.00;99.90;;;;;;5504225;26;20375;-84
2024/04/16 04:24:56;;;;;;;3.08;0.90;;;5.40;99.90;;;;;;5517627;26;20007;-84
2024/04/16 04:27:23;;;;;;;8.02;1.33;;;5.80;99.90;;;;;;5527852;26;20082;-84
2024/04/16 04:29:50;;;;;;;7.70;1.10;;;5.00;99.90;;;;;;5566701;25;20006;-84
2024/04/16 04:32:16;;;;;;;4.78;1.20;;;5.10;99.90;;;;;;5473316;25;20006;-84
2024/04/16 04:34:43;;;;;;;5.63;1.13;;;5.60;99.90;;;;;;5524184;26;20014;-84
2024/04/16 04:37:12;;;;;;;6.07;1.52;;;5.10;99.90;;;;;;5530475;25;20107;-84
2024/04/16 04:39:39;;;;;;;4.00;1.40;;;5.60;99.90;;;;;;5481344;26;20007;-84
2024/04/16 04:42:06;;;;;;;5.50;1.30;;;5.10;99.90;;;;;;5511866;26;20020;-84
2024/04/16 04:44:34;;;;;;;4.90;1.08;;;5.10;99.90;;;;;;5496741;26;20051;-84
2024/04/16 04:47:01;;;;;;;8.57;1.95;;;5.20;99.90;;;;;;5513089;26;20006;-84
2024/04/16 04:49:31;;;;;;;8.73;1.70;;;5.20;99.90;;;;;;5527351;26;20861;-83
2024/04/16 04:51:57;;;;;;;3.85;1.30;;;5.20;99.90;;;;;;5535289;26;20005;-83
2024/04/16 04:54:24;;;;;;;4.97;1.17;;;5.80;99.90;;;;;;5513140;26;20106;-84
2024/04/16 04:56:51;;;;;;;4.47;1.35;;;6.10;99.90;;;;;;5513079;26;20446;-83
2024/04/16 04:59:18;;;;;;;5.88;1.30;;;5.80;99.90;;;;;;5537295;26;20013;-83
2024/04/16 05:01:44;;;;;;;5.47;1.92;;;5.20;99.90;;;;;;5567415;25;20447;-84
2024/04/16 05:04:11;;;;;;;3.80;1.20;;;5.20;99.90;;;;;;5538045;25;20006;-83
2024/04/16 05:06:38;;;;;;;5.32;1.13;;;5.20;99.90;;;;;;5543125;25;20077;-83
2024/04/16 05:09:06;;;;;;;4.32;1.10;;;5.20;99.90;;;;;;5523854;25;20049;-83
2024/04/16 05:11:35;;;;;;;3.97;1.58;;;5.50;99.90;;;;;;5490901;26;20018;-83
2024/04/16 05:14:02;;;;;;;6.20;1.30;;;5.40;99.90;;;;;;5498014;26;20495;-83
2024/04/16 05:16:29;;;;;;;3.50;1.02;;;5.20;99.90;;;;;;5461507;26;20007;-83
2024/04/16 05:18:56;;;;;;;4.07;1.25;;;5.30;99.90;;;;;;5497302;26;20078;-83
2024/04/16 05:21:23;;;;;;;8.02;1.73;;;5.50;99.90;;;;;;5520301;26;20006;-83
2024/04/16 05:23:50;;;;;;;4.88;1.50;;;5.30;99.90;;;;;;5491228;26;20026;-84
2024/04/16 05:26:19;;;;;;;5.47;1.40;;;5.20;99.90;;;;;;5484477;26;20013;-83
2024/04/16 05:28:45;;;;;;;5.80;1.55;;;5.30;99.90;;;;;;5486442;26;20013;-83
2024/04/16 05:31:13;;;;;;;4.93;1.40;;;5.30;99.90;;;;;;5515651;26;20053;-83
2024/04/16 05:33:40;;;;;;;4.25;1.30;;;6.00;99.90;;;;;;5519334;26;20013;-83
2024/04/16 05:36:07;;;;;;;4.60;1.20;;;5.30;99.90;;;;;;5509519;26;20062;-83
2024/04/16 05:38:34;;;;;;;4.50;1.30;;;5.30;99.90;;;;;;5533523;26;20002;-83
2024/04/16 05:41:02;;;;;;;3.55;1.40;;;5.50;99.90;;;;;;5530238;26;20006;-83
2024/04/16 05:43:29;;;;;;;4.13;1.38;;;5.40;99.90;;;;;;5492795;26;20006;-83
2024/04/16 05:45:56;;;;;;;5.53;1.35;;;5.50;99.90;;;;;;5467879;26;20006;-83
2024/04/16 05:48:23;;;;;;;4.22;1.50;;;5.40;99.90;;;;;;5511549;26;20021;-83
2024/04/16 05:50:50;;;;;;;10.68;1.40;;;5.40;99.90;;;;;;5497033;26;20007;-83
2024/04/16 05:53:16;;;;;;;4.05;1.40;;;5.50;99.90;;;;;;5496143;26;20038;-83
2024/04/16 05:55:44;;;;;;;4.35;1.30;;;6.40;99.90;;;;;;5490668;26;20367;-84
2024/04/16 05:58:11;;;;;;;4.85;1.30;;;5.50;99.90;;;;;;5496867;26;20462;-83
2024/04/16 06:00:37;;;;;;;2.15;1.05;;;5.50;99.90;;;;;;5520491;26;20017;-83
2024/04/16 06:03:04;;;;;;;5.93;1.20;;;5.60;99.90;;;;;;5528281;26;20054;-84
2024/04/16 06:05:31;;;;;;;6.88;1.50;;;6.40;99.90;;;;;;5474584;26;20456;-83
2024/04/16 06:07:58;;;;;;;6.25;1.52;;;5.60;99.90;;;;;;5525065;26;20020;-83
2024/04/16 06:10:28;;;;;;;3.22;1.23;;;5.60;99.90;;;;;;5519032;26;20818;-83
2024/04/16 06:12:55;;;;;;;3.08;1.27;;;6.30;99.90;;;;;;5510195;26;20455;-83
2024/04/16 06:15:22;;;;;;;3.15;1.20;;;5.60;99.90;;;;;;5504036;26;20017;-83
2024/04/16 06:17:49;;;;;;;3.88;1.23;;;6.10;99.90;;;;;;5489900;26;20017;-83
2024/04/16 06:20:15;;;;;;;3.22;1.40;;;5.70;99.90;;;;;;5520524;26;20031;-83
2024/04/16 06:22:42;;;;;;;3.33;1.40;;;5.80;99.90;;;;;;5496279;26;20006;-83
2024/04/16 06:25:09;;;;;;;4.22;1.42;;;5.90;99.90;;;;;;5477732;26;20474;-84
2024/04/16 06:27:37;;;;;;;4.03;1.30;;;5.90;99.90;;;;;;5524666;26;20003;-84
2024/04/16 06:30:04;;;;;;;3.90;1.38;;;5.90;99.90;;;;;;5496005;26;20128;-83
2024/04/16 06:32:31;;;;;;;3.35;1.30;;;5.90;99.90;;;;;;5499182;26;20005;-83
2024/04/16 06:34:58;;;;;;;4.63;1.30;;;6.50;99.90;;;;;;5496203;26;20013;-83
2024/04/16 06:37:24;;;;;;;4.50;1.20;;;6.00;99.90;;;;;;5495738;26;20388;-83
2024/04/16 06:39:51;;;;;;;4.18;1.73;;;6.80;99.90;;;;;;5526981;26;20021;-83
2024/04/16 06:42:18;;;;;;;3.10;1.30;;;6.10;99.90;;;;;;5516493;26;20086;-83
2024/04/16 06:44:45;;;;;;;2.90;1.20;;;6.10;99.90;;;;;;5500066;26;20005;-83
2024/04/16 06:47:11;;;;;;;1.98;1.17;;;6.70;99.90;;;;;;5517518;26;20083;-83
2024/04/16 06:49:38;;;;;;;4.50;1.15;;;6.10;99.90;;;;;;5500005;26;20007;-83
2024/04/16 06:52:05;;;;;;;2.85;1.20;;;6.10;99.90;;;;;;5498344;26;20046;-83
2024/04/16 06:54:32;;;;;;;1.83;0.88;;;6.20;99.90;;;;;;5490834;26;20398;-83
2024/04/16 06:56:58;;;;;;;3.60;1.30;;;6.80;99.90;;;;;;5516855;26;20347;-83
2024/04/16 06:59:25;;;;;;;2.22;1.00;;;6.20;99.90;;;;;;5509278;26;20021;-83
2024/04/16 07:01:52;;;;;;;1.63;0.75;;;6.10;99.90;;;;;;5467943;26;20095;-83
2024/04/16 07:04:19;;;;;;;2.75;1.00;;;6.10;99.90;;;;;;5512037;26;20017;-83
2024/04/16 07:06:45;;;;;;;1.48;0.70;;;6.10;99.90;;;;;;5509219;26;20017;-83
2024/04/16 07:09:12;;;;;;;1.45;0.70;;;6.00;99.90;;;;;;5501125;26;20355;-83
2024/04/16 07:11:40;;;;;;;1.08;0.70;;;6.00;99.90;;;;;;5494925;26;20002;-84
2024/04/16 07:14:06;;;;;;;0.80;0.50;;;6.00;99.90;;;;;;5495099;26;20455;-84
2024/04/16 07:16:33;;;;;;;1.58;0.63;;;6.60;99.90;;;;;;5479432;26;20006;-85
2024/04/16 07:19:00;;;;;;;3.17;1.13;;;5.90;99.90;;;;;;5494144;26;20366;-84
2024/04/16 07:21:27;;;;;;;1.02;0.50;;;6.60;99.90;;;;;;5527675;26;20020;-84
2024/04/16 07:23:54;;;;;;;2.20;0.57;;;5.90;99.90;;;;;;5488495;26;20366;-84
2024/04/16 07:26:21;;;;;;;1.60;0.40;;;6.80;99.90;;;;;;5475114;26;20016;-83
2024/04/16 07:28:47;;;;;;;1.10;0.52;;;6.00;99.90;;;;;;5492848;26;20077;-84
2024/04/16 07:31:14;;;;;;;2.33;0.70;;;6.10;99.90;;;;;;5516777;26;20428;-83
2024/04/16 07:33:41;;;;;;;1.23;0.70;;;6.20;99.90;;;;;;5495450;26;20455;-83
2024/04/16 07:36:08;;;;;;;0.80;0.55;;;6.30;99.90;;;;;;5495342;26;20021;-83
2024/04/16 07:38:35;;;;;;;0.90;0.52;;;6.40;99.90;;;;;;5487294;26;20041;-84
2024/04/16 07:41:02;;;;;;;1.45;0.60;;;6.40;99.90;;;;;;5522973;26;20006;-84
2024/04/16 07:43:29;;;;;;;1.42;0.60;;;6.60;99.90;;;;;;5523835;26;20355;-85
2024/04/16 07:45:56;;;;;;;1.52;0.50;;;6.70;99.90;;;;;;5492147;26;20025;-83
2024/04/16 07:48:23;;;;;;;0.57;0.43;;;6.80;99.90;;;;;;5527700;26;20038;-83
2024/04/16 07:50:49;;;;;;;1.02;0.60;;;6.80;99.90;;;;;;5497420;26;20412;-83
2024/04/16 07:53:16;;;;;;;1.35;0.60;;;6.90;99.90;;;;;;5519055;26;20005;-83
2024/04/16 07:55:43;;;;;;;1.25;0.70;;;7.00;99.90;;;;;;5490957;26;20409;-83
2024/04/16 07:58:10;;;;;;;2.67;0.70;;;7.60;99.90;;;;;;5488136;26;20003;-83
2024/04/16 08:00:39;;;;;;;1.77;0.88;;;7.20;99.90;;;;;;5529914;26;20001;-83
2024/04/16 08:03:07;;;;;;;0.90;0.60;;;7.30;99.90;;;;;;5495441;26;20493;-83
2024/04/16 08:05:36;;;;;;;0.95;0.55;;;7.50;99.90;;;;;;5494823;26;20040;-83
2024/04/16 08:08:03;;;;;;;2.40;0.60;;;7.90;99.90;;;;;;5482082;26;20014;-83
2024/04/16 08:10:30;;;;;;;1.05;0.60;;;7.60;99.90;;;;;;5497477;26;20020;-83
2024/04/16 08:12:57;;;;;;;1.02;0.57;;;7.70;99.90;;;;;;5516304;26;20017;-83
2024/04/16 08:15:24;;;;;;;1.35;0.40;;;7.70;99.90;;;;;;5473024;26;20007;-83
2024/04/16 08:17:51;;;;;;;1.17;0.35;;;7.70;99.90;;;;;;5507632;26;20048;-83
2024/04/16 08:20:18;;;;;;;0.32;0.32;;;7.80;99.90;;;;;;5487014;26;20007;-83
2024/04/16 08:22:44;;;;;;;0.40;0.40;;;7.80;99.90;;;;;;5480170;26;20010;-83
2024/04/16 08:25:11;;;;;;;0.32;0.32;;;7.90;99.90;;;;;;5560009;26;20035;-83
2024/04/16 08:27:38;;;;;;;1.15;0.50;;;7.90;99.90;;;;;;5523088;26;20006;-83
2024/04/16 08:30:06;;;;;;;0.70;0.35;;;8.00;99.90;;;;;;5503959;26;20017;-84
2024/04/16 08:32:32;;;;;;;1.20;0.60;;;8.10;99.90;;;;;;5494723;26;20022;-83
2024/04/16 08:34:59;;;;;;;0.80;0.70;;;8.20;99.90;;;;;;5494057;26;20163;-83
2024/04/16 08:37:29;;;;;;;1.52;0.63;;;8.40;99.90;;;;;;5516669;26;20017;-83
2024/04/16 08:39:56;;;;;;;0.80;0.60;;;8.40;99.90;;;;;;5554814;26;20005;-83
2024/04/16 08:42:25;;;;;;;0.93;0.60;;;8.50;99.90;;;;;;5494847;26;20006;-83
2024/04/16 08:44:54;;;;;;;0.50;0.50;;;8.60;99.90;;;;;;5486624;26;20075;-84
2024/04/16 08:47:22;;;;;;;0.63;0.60;;;8.80;99.90;;;;;;5452990;26;20007;-84
2024/04/16 08:49:52;;;;;;;0.43;0.40;;;9.10;99.90;;;;;;5482137;26;20059;-83
2024/04/16 08:52:20;;;;;;;0.57;0.50;;;8.70;99.90;;;;;;5492041;26;20005;-84
2024/04/16 08:54:49;;;;;;;1.02;0.40;;;8.70;99.90;;;;;;5511870;26;20459;-84
2024/04/16 08:57:17;;;;;;;0.52;0.40;;;8.60;99.90;;;;;;5496320;26;20923;-83
2024/04/16 08:59:43;;;;;;;0.32;0.32;;;8.70;99.90;;;;;;5517979;26;20013;-83
2024/04/16 09:02:11;;;;;;;0.50;0.50;;;8.50;99.90;;;;;;5499196;26;20021;-83
2024/04/16 09:04:40;;;;;;;1.20;0.40;;;8.70;99.90;;;;;;5501877;26;20090;-84
2024/04/16 09:07:07;;;;;;;0.68;0.40;;;8.40;99.90;;;;;;5541256;26;20034;-83
2024/04/16 09:09:34;;;;;;;0.82;0.47;;;8.90;99.90;;;;;;5522841;26;20049;-83
2024/04/16 09:12:03;;;;;;;0.40;0.40;;;8.40;99.90;;;;;;5525378;26;20455;-83
2024/04/16 09:14:31;;;;;;;0.30;0.30;;;8.40;99.90;;;;;;5490880;26;20003;-83
2024/04/16 09:17:00;;;;;;;0.82;0.50;;;8.40;99.90;;;;;;5496921;26;20055;-83
2024/04/16 09:19:27;;;;;;;0.47;0.43;;;9.10;99.90;;;;;;5482780;26;20017;-83
2024/04/16 09:22:00;;;;;;;0.40;0.40;;;8.40;99.90;;;;;;5509678;26;20006;-84
2024/04/16 09:24:26;;;;;;;0.50;0.47;;;8.50;99.90;;;;;;5516656;26;20020;-82
2024/04/16 09:26:54;;;;;;;0.73;0.40;;;8.50;99.90;;;;;;5484517;26;20355;-84
2024/04/16 09:29:27;;;;;;;0.40;0.40;;;8.60;99.90;;;;;;5465736;26;20021;-84
2024/04/16 09:32:01;;;;;;;0.65;0.60;;;8.60;99.90;;;;;;5497169;26;20029;-83
2024/04/16 09:34:29;;;;;;;1.70;0.50;;;8.60;99.90;;;;;;5496937;26;20872;-83
2024/04/16 09:36:55;;;;;;;1.33;0.60;;;8.60;99.90;;;;;;5512279;26;20081;-82
2024/04/16 09:39:23;;;;;;;0.73;0.60;;;8.60;99.90;;;;;;5497214;26;20463;-83
2024/04/16 09:41:52;;;;;;;1.63;0.70;;;8.60;99.90;;;;;;5539027;26;20501;-83
2024/04/16 09:44:19;;;;;;;0.82;0.60;;;8.60;99.90;;;;;;5514241;26;20018;-83
2024/04/16 09:46:47;;;;;;;1.17;0.70;;;8.60;99.90;;;;;;5512354;26;20009;-83
2024/04/16 09:49:14;;;;;;;1.48;0.82;;;8.70;99.90;;;;;;5534461;26;20049;-83
2024/04/16 09:51:43;;;;;;;1.33;0.63;;;8.70;99.90;;;;;;5498764;26;20351;-84
2024/04/16 09:54:13;;;;;;;1.33;0.70;;;8.70;99.90;;;;;;5502865;25;20054;-83
2024/04/16 09:56:41;;;;;;;2.58;0.70;;;9.30;99.90;;;;;;5546621;26;20013;-83
2024/04/16 09:59:08;;;;;;;2.25;0.80;;;8.70;99.90;;;;;;5496916;26;20032;-83
2024/04/16 10:01:36;;;;;;;1.38;0.70;;;8.80;99.90;;;;;;5496328;26;20017;-83
2024/04/16 10:04:03;;;;;;;1.70;0.73;;;8.60;99.90;;;;;;5498335;26;20010;-83
2024/04/16 10:06:30;;;;;;;2.33;0.90;;;8.60;99.90;;;;;;5533117;26;20020;-83
2024/04/16 10:08:56;;;;;;;1.35;0.73;;;9.00;99.90;;;;;;5548887;26;20037;-82
2024/04/16 10:11:24;;;;;;;1.75;0.93;;;8.60;99.90;;;;;;5532385;26;20020;-83
2024/04/16 10:13:54;;;;;;;1.52;0.88;;;8.60;99.90;;;;;;5556382;26;20010;-82
2024/04/16 10:16:22;;;;;;;2.75;1.13;;;8.50;99.90;;;;;;5548940;26;20418;-82
2024/04/16 10:18:56;;;;;;;2.63;1.20;;;8.60;99.90;;;;;;5501515;26;20006;-82
2024/04/16 10:21:24;;;;;;;1.77;1.00;;;9.00;99.90;;;;;;5498616;26;20021;-82
2024/04/16 10:24:00;;;;;;;1.48;0.90;;;8.80;99.90;;;;;;5528200;26;20834;-82
2024/04/16 10:26:29;;;;;;;2.58;1.10;;;9.00;99.90;;;;;;5494594;26;20006;-82
2024/04/16 10:28:59;;;;;;;2.45;1.30;;;9.00;99.90;;;;;;5492418;26;20036;-82
2024/04/16 10:31:38;;;;;;;2.80;1.55;;;9.20;99.90;;;;;;5461548;26;20015;-83
2024/04/16 10:34:05;;;;;;;2.60;1.30;;;9.30;99.90;;;;;;5482415;26;20014;-83
2024/04/16 10:36:33;;;;;;;3.42;1.80;;;9.40;99.90;;;;;;5485518;26;20057;-84
2024/04/16 10:39:13;;;;;;;3.53;1.85;;;9.50;99.90;;;;;;5491838;26;20024;-83
2024/04/16 10:41:54;;;;;;;4.03;1.75;;;9.70;99.90;;;;;;5513606;26;20006;-83
2024/04/16 10:44:22;;;;;;;3.47;1.90;;;9.70;99.90;;;;;;5483828;26;20006;-83
2024/04/16 10:46:50;;;;;;;4.82;2.75;;;9.80;99.90;;;;;;5495930;26;20417;-83
2024/04/16 10:49:18;;;;;;;5.60;2.53;;;9.90;99.90;;;;;;5523319;26;20014;-82
2024/04/16 10:51:45;;;;;;;4.25;2.33;;;10.40;99.90;;;;;;5514085;26;20010;-82
2024/04/16 10:54:11;;;;;;;4.93;1.90;;;10.00;99.90;;;;;;5495297;26;20029;-83
2024/04/16 10:56:39;;;;;;;3.17;1.80;;;9.90;99.90;;;;;;5496363;26;20005;-82
2024/04/16 10:59:06;;;;;;;2.45;1.48;;;9.90;99.90;;;;;;5483900;26;20006;-82
2024/04/16 11:01:33;;;;;;;2.88;1.50;;;9.70;99.90;;;;;;5500758;26;20014;-82
2024/04/16 11:04:27;;;;;;;3.03;1.45;;;9.80;99.90;;;;;;5495235;26;20050;-83
2024/04/16 11:06:54;;;;;;;2.22;1.13;;;9.70;99.90;;;;;;5496395;26;20008;-82
2024/04/16 11:09:21;;;;;;;2.70;1.20;;;9.70;99.90;;;;;;5495837;26;20010;-83
2024/04/16 11:11:49;;;;;;;2.15;1.00;;;9.80;99.90;;;;;;5492733;26;20013;-83
2024/04/16 11:14:16;;;;;;;2.35;1.02;;;10.10;99.90;;;;;;5491729;26;20007;-83
2024/04/16 11:16:45;;;;;;;1.92;1.20;;;10.10;99.90;;;;;;5494370;26;19998;-83
2024/04/16 11:19:12;;;;;;;5.07;1.58;;;10.10;99.90;;;;;;5527441;26;20014;-83
2024/04/16 11:21:40;;;;;;;2.63;1.10;;;10.20;99.90;;;;;;5495901;26;20006;-83
2024/04/16 11:24:08;;;;;;;2.70;1.30;;;10.00;99.90;;;;;;5533487;26;20025;-83
2024/04/16 11:26:36;;;;;;;3.60;1.13;;;9.80;99.90;;;;;;5512007;26;20033;-83
2024/04/16 11:29:04;;;;;;;2.35;1.00;;;9.80;99.90;;;;;;5502781;26;20018;-83
2024/04/16 11:31:32;;;;;;;2.47;1.10;;;9.90;99.90;;;;;;5502128;26;20006;-82
2024/04/16 11:33:59;;;;;;;1.55;0.60;;;9.90;99.90;;;;;;5495046;26;20038;-82
2024/04/16 11:36:27;;;;;;;2.58;1.00;;;9.90;99.90;;;;;;5510212;26;20835;-82
2024/04/16 11:38:54;;;;;;;2.40;1.50;;;9.90;99.90;;;;;;5488876;26;20080;-83
2024/04/16 11:41:22;;;;;;;3.72;1.27;;;9.80;99.90;;;;;;5516782;26;20014;-83
2024/04/16 11:43:49;;;;;;;4.18;1.60;;;10.20;99.90;;;;;;5526271;26;20018;-83
2024/04/16 11:46:16;;;;;;;2.70;1.23;;;9.90;99.90;;;;;;5473804;26;20007;-83
2024/04/16 11:48:44;;;;;;;1.73;0.93;;;10.10;99.90;;;;;;5489688;26;20021;-82
2024/04/16 11:51:11;;;;;;;2.30;1.00;;;10.10;99.90;;;;;;5535133;26;20020;-82
2024/04/16 11:53:38;;;;;;;3.10;0.90;;;10.20;99.90;;;;;;5510444;26;20078;-82
2024/04/16 11:56:06;;;;;;;1.30;0.80;;;10.30;99.90;;;;;;5551554;26;20038;-82
2024/04/16 11:58:34;;;;;;;1.30;0.77;;;10.50;99.90;;;;;;5494756;26;20038;-82
2024/04/16 12:01:01;;;;;;;2.67;0.80;;;10.70;99.90;;;;;;5528229;25;20005;-82
2024/04/16 12:03:28;;;;;;;1.42;0.60;;;10.90;99.90;;;;;;5530016;26;20009;-82
2024/04/16 12:05:55;;;;;;;0.85;0.55;;;11.10;99.90;;;;;;5518362;26;20017;-82
2024/04/16 12:08:21;;;;;;;0.95;0.50;;;11.30;99.90;;;;;;5494578;26;20046;-82
2024/04/16 12:10:48;;;;;;;0.82;0.50;;;11.00;99.90;;;;;;5507203;26;20020;-83
2024/04/16 12:13:15;;;;;;;0.55;0.47;;;10.90;99.90;;;;;;5512915;26;20063;-82
2024/04/16 12:15:42;;;;;;;1.02;0.30;;;10.90;99.90;;;;;;5496390;26;20006;-82
2024/04/16 12:18:09;;;;;;;0.95;0.50;;;10.90;99.90;;;;;;5493630;26;20006;-82
2024/04/16 12:20:36;;;;;;;1.48;0.60;;;10.90;99.90;;;;;;5469567;26;20021;-82
2024/04/16 12:23:03;;;;;;;0.70;0.50;;;10.80;99.90;;;;;;5510098;26;20467;-82
2024/04/16 12:25:30;;;;;;;0.93;0.55;;;10.70;99.90;;;;;;5485003;26;20007;-82
2024/04/16 12:27:57;;;;;;;2.58;0.60;;;10.60;99.90;;;;;;5533518;26;20024;-83
2024/04/16 12:30:24;;;;;;;2.47;0.68;;;10.50;99.90;;;;;;5510592;26;20061;-82
2024/04/16 12:32:51;;;;;;;1.85;0.65;;;10.50;99.90;;;;;;5510240;26;20079;-82
2024/04/16 12:35:17;;;;;;;0.75;0.50;;;10.50;99.90;;;;;;5529726;26;20077;-82
2024/04/16 12:37:44;;;;;;;1.63;0.95;;;10.60;99.90;;;;;;5500994;26;20010;-82
2024/04/16 12:40:12;;;;;;;1.00;0.45;;;10.40;99.90;;;;;;5497680;26;20017;-83
2024/04/16 12:42:39;;;;;;;4.55;0.80;;;10.40;99.90;;;;;;5497470;26;20010;-84
2024/04/16 12:45:06;;;;;;;1.67;0.60;;;10.40;99.90;;;;;;5504277;26;20006;-84
2024/04/16 12:47:33;;;;;;;3.13;0.70;;;10.40;99.90;;;;;;5470718;26;20010;-84
2024/04/16 12:50:00;;;;;;;1.98;0.80;;;10.50;99.90;;;;;;5496784;26;20017;-82
2024/04/16 12:52:26;;;;;;;5.80;0.80;;;10.40;99.90;;;;;;5559377;26;20006;-83
2024/04/16 12:54:53;;;;;;;1.75;0.80;;;10.40;99.90;;;;;;5518711;26;20013;-83
2024/04/16 12:57:20;;;;;;;2.42;0.80;;;10.40;99.90;;;;;;5469348;26;20471;-83
2024/04/16 12:59:51;;;;;;;2.50;0.90;;;10.40;99.90;;;;;;5509941;26;20035;-83
2024/04/16 13:02:18;;;;;;;3.15;0.90;;;10.30;99.90;;;;;;5529022;26;20100;-83